createdAt,value
2023-05-13T00:01:59.144Z,49.20
2023-05-13T00:04:42.664Z,49.23
2023-05-13T00:07:23.507Z,49.30
2023-05-13T00:10:09.763Z,49.37
2023-05-13T00:12:48.687Z,49.42
2023-05-13T00:15:27.436Z,49.53
2023-05-13T00:18:12.378Z,49.51
2023-05-13T00:20:52.278Z,49.57
2023-05-13T00:23:25.524Z,49.59
2023-05-13T00:26:26.523Z,49.75
2023-05-13T00:29:33.663Z,49.83
2023-05-13T00:32:23.816Z,49.91
2023-05-13T00:35:41.851Z,49.97
2023-05-13T00:38:53.992Z,49.98
2023-05-13T00:42:01.571Z,50.03
2023-05-13T00:44:50.505Z,50.12
2023-05-13T00:47:29.319Z,50.18
2023-05-13T00:50:00.709Z,50.17
2023-05-13T00:52:53.706Z,50.26
2023-05-13T00:55:40.703Z,50.33
2023-05-13T00:58:45.590Z,50.38
2023-05-13T01:01:46.202Z,50.43
2023-05-13T01:05:04.212Z,50.53
2023-05-13T01:08:06.628Z,50.59
2023-05-13T01:11:11.600Z,50.70
2023-05-13T01:13:58.694Z,50.62
2023-05-13T01:17:05.354Z,50.80
2023-05-13T01:20:15.089Z,50.77
2023-05-13T01:22:47.331Z,50.81
2023-05-13T01:25:22.907Z,50.79
2023-05-13T01:28:14.700Z,50.81
2023-05-13T01:31:08.887Z,50.89
2023-05-13T01:33:47.685Z,51.06
2023-05-13T01:36:19.358Z,51.22
2023-05-13T01:39:15.259Z,51.17
2023-05-13T01:41:44.924Z,51.13
2023-05-13T01:44:13.432Z,51.17
2023-05-13T01:46:57.865Z,51.14
2023-05-13T01:49:41.503Z,51.17
2023-05-13T01:52:18.152Z,51.26
2023-05-13T01:55:12.321Z,51.20
2023-05-13T01:58:04.715Z,51.28
2023-05-13T02:01:03.675Z,51.37
2023-05-13T02:03:55.620Z,51.44
2023-05-13T02:06:57.041Z,51.47
2023-05-13T02:09:59.995Z,51.60
2023-05-13T02:13:44.293Z,51.68
2023-05-13T02:17:37.107Z,51.78
2023-05-13T02:20:16.141Z,51.91
2023-05-13T02:22:47.839Z,51.82
2023-05-13T02:25:21.920Z,51.88
2023-05-13T02:28:05.481Z,51.81
2023-05-13T02:30:57.656Z,52.00
2023-05-13T02:34:09.835Z,52.02
2023-05-13T02:36:48.968Z,52.10
2023-05-13T02:39:30.013Z,52.16
2023-05-13T02:42:37.607Z,52.22
2023-05-13T02:45:44.888Z,52.28
2023-05-13T02:48:38.749Z,52.37
2023-05-13T02:51:24.037Z,52.45
2023-05-13T02:54:04.940Z,52.44
2023-05-13T02:57:10.912Z,52.34
2023-05-13T02:59:56.304Z,52.40
2023-05-13T03:02:37.869Z,52.35
2023-05-13T03:05:07.470Z,52.37
2023-05-13T03:07:50.388Z,52.46
2023-05-13T03:10:39.658Z,52.43
2023-05-13T03:13:18.702Z,52.49
2023-05-13T03:16:16.014Z,52.52
2023-05-13T03:19:24.228Z,52.59
2023-05-13T03:22:39.972Z,52.62
2023-05-13T03:25:27.565Z,52.65
2023-05-13T03:28:37.055Z,52.71
2023-05-13T03:31:43.955Z,52.71
2023-05-13T03:34:31.605Z,52.80
2023-05-13T03:37:35.944Z,52.97
2023-05-13T03:40:23.914Z,52.93
2023-05-13T03:43:36.258Z,52.99
2023-05-13T03:46:34.846Z,53.14
2023-05-13T03:49:12.156Z,53.16
2023-05-13T03:51:48.938Z,53.15
2023-05-13T03:55:11.741Z,53.20
2023-05-13T03:58:32.178Z,53.14
2023-05-13T04:01:32.119Z,53.29
2023-05-13T04:04:48.560Z,53.39
2023-05-13T04:07:59.189Z,53.39
2023-05-13T04:11:08.889Z,53.35
2023-05-13T04:13:40.520Z,53.45
2023-05-13T04:16:22.656Z,53.42
2023-05-13T04:19:11.377Z,53.49
2023-05-13T04:22:26.567Z,53.53
2023-05-13T04:25:33.021Z,53.62
2023-05-13T04:28:07.500Z,53.60
2023-05-13T04:31:05.437Z,53.64
2023-05-13T04:34:15.201Z,53.56
2023-05-13T04:37:19.197Z,53.65
2023-05-13T04:41:08.690Z,53.70
2023-05-13T04:43:58.998Z,53.78
2023-05-13T04:47:25.128Z,53.88
2023-05-13T04:50:04.872Z,53.97
2023-05-13T04:52:47.260Z,53.95
2023-05-13T04:55:21.631Z,54.06
2023-05-13T04:57:56.409Z,54.15
2023-05-13T05:01:40.220Z,54.27
2023-05-13T05:05:34.575Z,54.43
2023-05-13T05:09:34.112Z,54.45
2023-05-13T05:13:03.545Z,54.45
2023-05-13T05:16:55.073Z,54.47
2023-05-13T05:20:07.097Z,54.55
2023-05-13T05:23:15.427Z,54.55
2023-05-13T05:26:52.167Z,54.53
2023-05-13T05:30:34.536Z,54.45
2023-05-13T05:34:33.981Z,54.46
2023-05-13T05:38:21.974Z,54.40
2023-05-13T05:41:45.956Z,54.43
2023-05-13T05:45:21.370Z,54.36
2023-05-13T05:48:12.967Z,54.28
2023-05-13T05:51:57.571Z,54.26
2023-05-13T05:55:45.475Z,54.11
2023-05-13T05:59:31.507Z,53.99
2023-05-13T06:03:41.064Z,53.81
2023-05-13T06:07:11.521Z,53.84
2023-05-13T06:10:23.822Z,53.83
2023-05-13T06:13:23.928Z,53.76
2023-05-13T06:17:13.211Z,53.41
2023-05-13T06:20:22.566Z,53.18
2023-05-13T06:24:32.526Z,53.02
2023-05-13T06:28:41.944Z,53.00
2023-05-13T06:33:00.868Z,52.91
2023-05-13T06:36:54.957Z,52.80
2023-05-13T06:40:27.050Z,52.84
2023-05-13T06:43:58.104Z,52.76
2023-05-13T06:48:07.800Z,52.73
2023-05-13T06:52:17.056Z,52.69
2023-05-13T06:55:41.541Z,52.67
2023-05-13T06:59:14.128Z,52.64
2023-05-13T07:02:15.936Z,52.42
2023-05-13T07:04:50.744Z,52.51
2023-05-13T07:07:57.120Z,52.53
2023-05-13T07:11:28.945Z,52.49
2023-05-13T07:15:38.489Z,52.44
2023-05-13T07:19:47.596Z,52.24
2023-05-13T07:23:27.278Z,52.17
2023-05-13T07:27:12.599Z,52.11
2023-05-13T07:31:04.715Z,52.00
2023-05-13T07:34:55.989Z,51.93
2023-05-13T07:38:14.040Z,51.75
2023-05-13T07:42:08.960Z,51.69
2023-05-13T07:46:01.308Z,51.71
2023-05-13T07:50:10.687Z,51.61
2023-05-13T07:54:06.365Z,51.69
2023-05-13T07:57:29.370Z,51.45
2023-05-13T08:00:45.581Z,51.33
2023-05-13T08:04:00.297Z,51.32
2023-05-13T08:07:15.605Z,51.21
2023-05-13T08:09:56.687Z,51.11
2023-05-13T08:13:05.540Z,51.20
2023-05-13T08:16:16.627Z,51.17
2023-05-13T08:18:53.432Z,51.06
2023-05-13T08:21:32.753Z,50.84
2023-05-13T08:24:20.602Z,50.82
2023-05-13T08:26:55.343Z,50.77
2023-05-13T08:29:57.533Z,50.62
2023-05-13T08:32:48.628Z,50.61
2023-05-13T08:35:26.658Z,50.30
2023-05-13T08:38:06.623Z,50.22
2023-05-13T08:41:18.563Z,49.92
2023-05-13T08:43:49.918Z,49.62
2023-05-13T08:46:21.640Z,49.45
2023-05-13T08:48:57.225Z,49.55
2023-05-13T08:51:52.018Z,49.28
2023-05-13T08:54:49.847Z,49.11
2023-05-13T08:58:03.681Z,48.93
2023-05-13T09:01:34.436Z,48.46
2023-05-13T09:05:05.224Z,48.13
2023-05-13T09:08:39.701Z,47.99
2023-05-13T09:12:17.410Z,47.82
2023-05-13T09:15:57.430Z,47.61
2023-05-13T09:19:15.945Z,47.35
2023-05-13T09:22:24.389Z,47.37
2023-05-13T09:25:38.933Z,47.60
2023-05-13T09:30:03.155Z,47.38
2023-05-13T09:33:32.340Z,47.46
2023-05-13T09:36:21.183Z,47.40
2023-05-13T09:39:50.430Z,47.15
2023-05-13T09:43:15.708Z,47.23
2023-05-13T09:47:04.726Z,47.21
2023-05-13T09:50:42.652Z,47.13
2023-05-13T09:54:47.846Z,47.15
2023-05-13T09:57:39.892Z,47.12
2023-05-13T10:00:32.198Z,47.24
2023-05-13T10:03:48.346Z,47.11
2023-05-13T10:07:01.322Z,47.00
2023-05-13T10:10:16.831Z,47.11
2023-05-13T10:13:57.976Z,47.03
2023-05-13T10:17:46.135Z,46.77
2023-05-13T10:21:27.741Z,46.78
2023-05-13T10:25:10.307Z,46.54
2023-05-13T10:28:52.579Z,46.49
2023-05-13T10:32:38.788Z,46.51
2023-05-13T10:36:19.215Z,46.13
2023-05-13T10:39:54.999Z,45.96
2023-05-13T10:43:34.596Z,45.97
2023-05-13T10:46:42.415Z,45.68
2023-05-13T10:49:57.664Z,45.52
2023-05-13T10:53:25.192Z,45.29
2023-05-13T10:56:09.352Z,45.17
2023-05-13T10:59:24.140Z,45.18
2023-05-13T11:02:31.820Z,44.82
2023-05-13T11:06:10.036Z,44.53
2023-05-13T11:09:32.214Z,44.38
2023-05-13T11:12:51.662Z,44.33
2023-05-13T11:16:19.394Z,43.97
2023-05-13T11:19:10.663Z,43.52
2023-05-13T11:22:37.030Z,43.46
2023-05-13T11:26:19.456Z,43.42
2023-05-13T11:29:58.429Z,43.19
2023-05-13T11:33:13.819Z,42.78
2023-05-13T11:35:58.635Z,42.54
2023-05-13T11:38:41.000Z,42.46
2023-05-13T11:42:05.160Z,42.27
2023-05-13T11:44:56.850Z,42.09
2023-05-13T11:48:07.670Z,41.74
2023-05-13T11:51:09.203Z,41.41
2023-05-13T11:53:53.534Z,41.18
2023-05-13T11:56:51.800Z,41.11
2023-05-13T12:00:17.071Z,40.86
2023-05-13T12:04:01.381Z,40.57
2023-05-13T12:07:53.462Z,40.68
2023-05-13T12:11:26.349Z,40.53
2023-05-13T12:15:03.772Z,40.42
2023-05-13T12:18:13.096Z,40.17
2023-05-13T12:21:52.086Z,40.11
2023-05-13T12:25:12.821Z,40.10
2023-05-13T12:29:02.202Z,40.19
2023-05-13T12:32:57.218Z,40.16
2023-05-13T12:35:46.181Z,40.12
2023-05-13T12:38:25.129Z,40.53
2023-05-13T12:41:13.443Z,40.63
2023-05-13T12:43:42.175Z,40.55
2023-05-13T12:46:20.294Z,40.58
2023-05-13T12:48:56.332Z,40.69
2023-05-13T12:51:33.855Z,40.55
2023-05-13T12:54:02.792Z,40.21
2023-05-13T12:56:34.595Z,40.26
2023-05-13T12:59:25.411Z,40.14
2023-05-13T13:02:01.355Z,40.15
2023-05-13T13:04:32.702Z,40.37
2023-05-13T13:07:14.808Z,40.58
2023-05-13T13:09:57.157Z,40.63
2023-05-13T13:12:49.628Z,40.93
2023-05-13T13:15:21.320Z,40.75
2023-05-13T13:18:01.705Z,40.94
2023-05-13T13:20:30.257Z,41.00
2023-05-13T13:23:03.225Z,41.09
2023-05-13T13:25:33.068Z,41.20
2023-05-13T13:28:04.673Z,41.23
2023-05-13T13:31:08.109Z,41.10
2023-05-13T13:33:57.320Z,41.06
2023-05-13T13:36:43.274Z,41.32
2023-05-13T13:40:32.659Z,41.43
2023-05-13T13:43:18.406Z,41.44
2023-05-13T13:46:30.507Z,41.68
2023-05-13T13:49:51.762Z,41.48
2023-05-13T13:52:28.015Z,41.88
2023-05-13T13:55:32.120Z,41.98
2023-05-13T13:58:26.302Z,42.18
2023-05-13T14:00:57.554Z,42.29
2023-05-13T14:04:22.788Z,42.28
2023-05-13T14:07:55.697Z,42.37
2023-05-13T14:11:04.480Z,42.40
2023-05-13T14:15:02.901Z,42.38
2023-05-13T14:18:59.843Z,42.27
2023-05-13T14:22:19.089Z,42.05
2023-05-13T14:25:54.615Z,41.90
2023-05-13T14:29:05.440Z,41.85
2023-05-13T14:32:53.727Z,41.58
2023-05-13T14:36:17.873Z,41.59
2023-05-13T14:39:37.118Z,41.28
2023-05-13T14:42:33.366Z,41.15
2023-05-13T14:46:01.510Z,40.87
2023-05-13T14:49:30.609Z,40.81
2023-05-13T14:52:39.320Z,40.67
2023-05-13T14:55:45.508Z,40.55
2023-05-13T14:59:08.915Z,40.53
2023-05-13T15:02:26.286Z,40.34
2023-05-13T15:05:27.249Z,40.19
2023-05-13T15:09:06.497Z,40.22
2023-05-13T15:11:59.065Z,40.22
2023-05-13T15:14:39.514Z,40.09
2023-05-13T15:17:48.278Z,39.95
2023-05-13T15:21:07.299Z,39.88
2023-05-13T15:24:39.294Z,39.90
2023-05-13T15:28:28.550Z,39.78
2023-05-13T15:31:48.970Z,39.64
2023-05-13T15:35:37.664Z,39.50
2023-05-13T15:39:22.647Z,39.42
2023-05-13T15:43:14.158Z,38.95
2023-05-13T15:46:49.639Z,38.77
2023-05-13T15:50:28.098Z,38.63
2023-05-13T15:54:37.788Z,38.63
2023-05-13T15:58:43.022Z,38.49
2023-05-13T16:01:39.417Z,38.55
2023-05-13T16:05:13.302Z,38.49
2023-05-13T16:08:56.408Z,38.52
2023-05-13T16:12:37.952Z,38.40
2023-05-13T16:16:31.422Z,38.48
2023-05-13T16:20:29.942Z,38.53
2023-05-13T16:24:20.344Z,38.33
2023-05-13T16:27:48.028Z,38.38
2023-05-13T16:30:26.045Z,38.53
2023-05-13T16:33:18.313Z,38.37
2023-05-13T16:35:46.657Z,38.25
2023-05-13T16:38:27.236Z,38.29
2023-05-13T16:41:07.991Z,38.29
2023-05-13T16:43:51.133Z,38.07
2023-05-13T16:47:15.446Z,37.86
2023-05-13T16:50:46.242Z,37.89
2023-05-13T16:54:09.985Z,37.81
2023-05-13T16:57:06.856Z,38.08
2023-05-13T16:59:54.584Z,38.06
2023-05-13T17:02:26.560Z,38.12
2023-05-13T17:04:55.521Z,37.88
2023-05-13T17:07:37.925Z,38.03
2023-05-13T17:10:54.672Z,38.27
2023-05-13T17:13:29.120Z,38.15
2023-05-13T17:17:10.253Z,38.15
2023-05-13T17:20:06.733Z,38.20
2023-05-13T17:23:18.056Z,38.18
2023-05-13T17:26:00.109Z,38.58
2023-05-13T17:28:59.554Z,38.67
2023-05-13T17:31:37.326Z,38.79
2023-05-13T17:34:14.470Z,38.64
2023-05-13T17:36:47.357Z,38.87
2023-05-13T17:39:17.103Z,38.82
2023-05-13T17:42:00.897Z,39.20
2023-05-13T17:44:44.440Z,39.29
2023-05-13T17:47:15.448Z,39.33
2023-05-13T17:49:46.024Z,39.63
2023-05-13T17:52:23.885Z,39.71
2023-05-13T17:55:28.340Z,39.99
2023-05-13T17:58:37.728Z,40.20
2023-05-13T18:01:09.162Z,40.38
2023-05-13T18:04:06.829Z,40.49
2023-05-13T18:06:35.763Z,40.76
2023-05-13T18:09:20.311Z,40.88
2023-05-13T18:12:25.451Z,41.00
2023-05-13T18:15:14.167Z,41.20
2023-05-13T18:18:05.744Z,41.44
2023-05-13T18:20:46.004Z,41.60
2023-05-13T18:23:14.723Z,41.95
2023-05-13T18:26:08.786Z,41.98
2023-05-13T18:28:55.592Z,41.71
2023-05-13T18:31:30.218Z,41.52
2023-05-13T18:34:09.976Z,41.54
2023-05-13T18:37:21.813Z,41.72
2023-05-13T18:41:25.044Z,41.77
2023-05-13T18:44:40.242Z,41.78
2023-05-13T18:48:12.796Z,41.77
2023-05-13T18:51:34.296Z,41.79
2023-05-13T18:54:48.539Z,41.67
2023-05-13T18:57:53.436Z,41.79
2023-05-13T19:01:31.746Z,41.61
2023-05-13T19:04:33.485Z,41.86
2023-05-13T19:08:13.923Z,41.87
2023-05-13T19:10:56.526Z,41.87
2023-05-13T19:14:30.227Z,41.96
2023-05-13T19:18:19.417Z,41.97
2023-05-13T19:21:34.552Z,41.86
2023-05-13T19:24:53.009Z,42.10
2023-05-13T19:28:08.891Z,42.03
2023-05-13T19:31:13.430Z,41.98
2023-05-13T19:34:49.628Z,42.00
2023-05-13T19:38:47.964Z,42.16
2023-05-13T19:42:29.886Z,42.27
2023-05-13T19:46:31.728Z,42.40
2023-05-13T19:50:34.022Z,42.47
2023-05-13T19:53:26.320Z,42.58
2023-05-13T19:56:43.829Z,42.76
2023-05-13T19:59:36.244Z,42.86
2023-05-13T20:03:34.367Z,42.96
2023-05-13T20:06:49.134Z,43.02
2023-05-13T20:10:26.837Z,42.97
2023-05-13T20:14:07.589Z,43.07
2023-05-13T20:16:46.812Z,43.13
2023-05-13T20:20:05.538Z,43.28
2023-05-13T20:24:12.644Z,43.33
2023-05-13T20:27:54.338Z,43.29
2023-05-13T20:31:53.188Z,43.52
2023-05-13T20:35:42.323Z,43.62
2023-05-13T20:38:48.095Z,43.86
2023-05-13T20:42:16.330Z,44.09
2023-05-13T20:46:14.618Z,44.10
2023-05-13T20:48:56.348Z,44.17
2023-05-13T20:52:20.972Z,44.40
2023-05-13T20:55:52.898Z,44.40
2023-05-13T20:58:35.054Z,44.73
2023-05-13T21:01:59.165Z,44.72
2023-05-13T21:05:07.494Z,44.77
2023-05-13T21:07:58.826Z,44.76
2023-05-13T21:11:02.131Z,44.85
2023-05-13T21:14:31.362Z,44.88
2023-05-13T21:17:51.084Z,44.95
2023-05-13T21:21:00.284Z,45.10
2023-05-13T21:23:46.063Z,45.07
2023-05-13T21:27:35.566Z,45.09
2023-05-13T21:31:03.418Z,45.04
2023-05-13T21:34:48.582Z,45.08
2023-05-13T21:38:58.228Z,45.03
2023-05-13T21:41:31.575Z,45.18
2023-05-13T21:44:48.217Z,45.21
2023-05-13T21:47:37.831Z,45.46
2023-05-13T21:51:45.877Z,45.21
2023-05-13T21:55:39.281Z,45.44
2023-05-13T21:58:21.786Z,45.55
2023-05-13T22:01:12.364Z,45.60
2023-05-13T22:04:26.359Z,45.77
2023-05-13T22:08:26.208Z,45.75
2023-05-13T22:12:34.389Z,45.56
2023-05-13T22:16:29.385Z,45.70
2023-05-13T22:20:21.323Z,45.90
2023-05-13T22:24:09.765Z,45.87
2023-05-13T22:27:56.810Z,45.95
2023-05-13T22:31:39.721Z,45.93
2023-05-13T22:35:17.528Z,46.02
2023-05-13T22:39:27.047Z,46.24
2023-05-13T22:43:13.428Z,46.17
2023-05-13T22:46:54.629Z,46.14
2023-05-13T22:51:04.189Z,46.12
2023-05-13T22:54:39.219Z,46.23
2023-05-13T22:57:41.322Z,46.22
2023-05-13T23:01:53.744Z,46.42
2023-05-13T23:05:33.385Z,46.51
2023-05-13T23:09:25.969Z,46.59
2023-05-13T23:13:03.769Z,46.66
2023-05-13T23:16:24.502Z,46.69
2023-05-13T23:20:06.030Z,46.65
2023-05-13T23:24:07.320Z,46.83
2023-05-13T23:27:01.454Z,46.94
2023-05-13T23:30:51.427Z,46.94
2023-05-13T23:34:33.740Z,47.05
2023-05-13T23:38:35.886Z,47.19
2023-05-13T23:41:54.120Z,47.22
2023-05-13T23:45:33.277Z,47.31
2023-05-13T23:48:40.800Z,47.38
2023-05-13T23:52:01.205Z,47.43
2023-05-13T23:56:02.134Z,47.65
